Startpagina
METAR-TAF:

METAR-TAF

Vliegvelden :

Stewart, Brits Columbia, Canada

breedte: 55-56N, lengte: 129-59W, hoogte: 7 m

Actueel weer

Dit bericht is 21 minuten geleden gemaakt, om 20:00 UTC
Wind 2 kt uit variabele richting
Temperatuur 7°C
Vochtigheid 53%
Druk 1026 hPa
Zicht: 24.1 km
Weinig wolken op 5000 ft

METAR: CZST 102000Z VRB02KT 15SM FEW050 07/M02 A3031 RMK CF1 CF TR SLP265

Tijdstip: 13:21 (20:21 UTC)


TAF: ontbreekt

Waarnemingen en weersverwachtingen van meer dan 4000 vliegvelden (METAR en TAF).

De beschikbare stations zijn de gele en rode punten op de kaart.

Ga met uw muis naar het station om de naam te zien.

Klik dan om waarnemingen en weersverwachtingen te zien.

kaart wijzigen: klik op de groene knoppen met een zwart kruis om in te zoomen, op de groene knop met een streepje om uit te zoomen of op de groene pijlen voor aangrenzende kaarten.


METAR-TAF: